レイキャビク/ケフラヴィーク の空港の天気 - METARとTAF

ケフラヴィーク国際空港 ( BIKF / KEF ) - アイスランド ケプラヴィーク
飛行場実況気象(Metar)
観測時間08/13 05:00 GMT (08/13 05:00 UTC)
風向・風速南 10m/s
視程1900m
天気現象弱い雨 もや
全天を覆う雲 雲底高度 90m
気温10℃
湿度100%
気圧1013hPa
METARBIKF 130500Z 19019KT 1900 -RA BR OVC003 10/10 Q1013
過去の天気等 Google飛行場航空写真 Wunderground天気予報

過去48時間のMETAR

飛行場予報(TAF)
発表時間: 8/13 01:35 GMT (8/13 01:35 UTC)
予報対象時間: 13日3時 GMT ~ 14日3時 GMT
風向・風速南南西 9m/s
視程10km以上
天気現象弱い雨
全天の8割程度の雲 雲底高度 300m
全天を覆う雲 雲底高度 610m
13日3時 GMT ~ 13日5時 GMT に徐々に
視程1500m
天気現象弱い雨霧雨 もや
全天を覆う雲 雲底高度 210m
13日4時 GMT ~ 13日15時 GMT に一時的に
視程500m
天気現象雨霧雨 霧
全天を覆う雲 鉛直視程 60m
13日18時 GMT ~ 13日20時 GMT に徐々に
風向・風速西 6m/s
13日20時 GMT ~ 13日22時 GMT に徐々に
視程10km以上
天気現象運行に影響にある天気現象が終了
全天を覆う雲 雲底高度 370m
TAF BIKF 130135Z 1303/1403 20018KT 9999 -RA BKN010 OVC020 TX11/1313Z TN09/1400Z
BECMG 1303/1305 1500 -RADZ BR OVC007
TEMPO 1304/1315 0500 RADZ FG VV002
BECMG 1318/1320 27012KT
BECMG 1320/1322 9999 NSW OVC012